Time;durP1;ratioP1;P1;durP2;ratioP2;P2;SDS_P1;SDS_P2;PMS_P1;PMS_P2;Temp;Humidity;BMP_temperature;BMP_pressure;BME280_temperature;BME280_humidity;BME280_pressure;Samples;Min_cycle;Max_cycle;Signal;HPM_P1;HPM_P2
2022/12/10 00:03:34;;;;;;;58.67;18.70;;;;;;;-5.45;100.00;100722.16;4993646;28;20320;-95
2022/12/10 01:23:46;;;;;;;69.32;22.02;;;;;;;-5.63;100.00;100724.84;4977190;28;20046;-91
2022/12/10 01:29:10;;;;;;;71.15;22.60;;;;;;;-5.54;100.00;100738.75;4987636;28;20138;-92
2022/12/10 01:31:37;;;;;;;65.33;21.07;;;;;;;-5.42;100.00;100763.63;4973701;28;20051;-91
2022/12/10 01:34:05;;;;;;;68.55;21.25;;;;;;;-5.48;100.00;100769.50;4975713;28;20121;-91
2022/12/10 02:03:10;;;;;;;98.30;25.65;;;;;;;-4.68;100.00;100767.56;5040625;28;20121;-92
2022/12/10 02:05:55;;;;;;;94.65;25.48;;;;;;;-4.54;100.00;100781.84;5038028;28;20022;-92
2022/12/10 02:08:28;;;;;;;106.13;28.90;;;;;;;-4.43;100.00;100773.69;5027326;23;20109;-92
2022/12/10 02:11:11;;;;;;;99.40;26.30;;;;;;;-4.31;100.00;100776.81;5006583;28;20090;-92
2022/12/10 02:13:45;;;;;;;119.93;31.20;;;;;;;-4.27;100.00;100767.69;5022906;28;20425;-92
2022/12/10 02:19:07;;;;;;;118.63;27.77;;;;;;;-4.02;100.00;100778.19;5375990;23;20525;-92
2022/12/10 02:21:50;;;;;;;118.45;28.52;;;;;;;-4.09;100.00;100756.25;5012382;28;20100;-92
2022/12/10 02:24:25;;;;;;;117.50;27.90;;;;;;;-3.90;100.00;100782.09;5028177;28;20120;-92
2022/12/10 02:26:59;;;;;;;115.47;27.43;;;;;;;-3.84;100.00;100784.09;5032272;28;20276;-93
2022/12/10 02:32:49;;;;;;;105.03;26.92;;;;;;;-3.77;100.00;100767.69;5030548;28;20064;-92
2022/12/10 02:35:28;;;;;;;130.43;30.90;;;;;;;-3.81;100.00;100754.94;5012228;28;20037;-92
2022/12/10 02:40:52;;;;;;;132.15;30.23;;;;;;;-3.69;100.00;100773.75;5031317;28;20053;-90
2022/12/10 02:43:17;;;;;;;111.63;28.20;;;;;;;-3.78;100.00;100753.78;5031530;28;20056;-92
2022/12/10 02:45:50;;;;;;;102.50;25.77;;;;;;;-3.85;100.00;100737.94;5020011;28;20792;-92
2022/12/10 02:48:31;;;;;;;103.90;28.38;;;;;;;-3.81;100.00;100749.69;5029744;28;20062;-92
2022/12/10 02:57:10;;;;;;;100.40;26.90;;;;;;;-3.83;100.00;100754.28;5022674;28;20408;-92
2022/12/10 03:00:08;;;;;;;91.03;24.83;;;;;;;-3.88;100.00;100748.72;5031615;28;20018;-91
2022/12/10 03:03:11;;;;;;;83.72;24.30;;;;;;;-3.74;100.00;100783.09;5030405;28;20128;-91
2022/12/10 03:05:46;;;;;;;84.88;23.00;;;;;;;-3.78;100.00;100795.69;5030679;28;20057;-92
2022/12/10 03:08:21;;;;;;;91.65;24.92;;;;;;;-3.84;100.00;100784.09;5031069;28;20025;-91
2022/12/10 03:11:01;;;;;;;94.75;25.25;;;;;;;-3.71;100.00;100795.84;5030235;28;20238;-91
2022/12/10 03:13:36;;;;;;;97.97;25.25;;;;;;;-3.76;100.00;100777.19;5030097;28;20553;-91
2022/12/10 03:16:03;;;;;;;93.80;24.23;;;;;;;-3.84;100.00;100767.53;5028988;28;20155;-91
2022/12/10 03:18:33;;;;;;;89.60;24.47;;;;;;;-3.77;100.00;100778.16;5027491;28;20358;-93
2022/12/10 03:21:06;;;;;;;89.15;23.67;;;;;;;-3.65;100.00;100784.69;5027396;28;20091;-91
2022/12/10 03:23:51;;;;;;;93.13;26.38;;;;;;;-3.74;100.00;100762.94;5029471;28;20551;-91
2022/12/10 03:26:19;;;;;;;89.25;24.83;;;;;;;-3.67;100.00;100760.50;5029310;28;20056;-91
2022/12/10 03:29:00;;;;;;;108.80;27.98;;;;;;;-3.56;100.00;100770.63;5025799;28;20385;-91
2022/12/10 03:32:18;;;;;;;103.93;27.95;;;;;;;-3.37;100.00;100787.78;5029823;28;20037;-92
2022/12/10 03:34:44;;;;;;;98.50;25.50;;;;;;;-3.38;100.00;100767.00;5030941;28;20034;-93
2022/12/10 03:37:11;;;;;;;102.47;26.80;;;;;;;-3.44;100.00;100751.94;5023296;28;20323;-92
2022/12/10 03:39:37;;;;;;;109.75;26.73;;;;;;;-3.21;100.00;100783.50;5011036;28;20102;-92
2022/12/10 03:42:18;;;;;;;107.03;26.70;;;;;;;-3.23;100.00;100778.41;5010966;28;20057;-93
2022/12/10 03:50:43;;;;;;;109.68;27.63;;;;;;;-3.28;100.00;100757.13;5012381;23;20053;-92
2022/12/10 03:53:12;;;;;;;113.93;27.55;;;;;;;-3.12;100.00;100777.25;5004280;28;20461;-92
2022/12/10 03:55:37;;;;;;;106.20;27.53;;;;;;;-3.10;100.00;100775.28;4997421;28;20532;-91
2022/12/10 03:58:06;;;;;;;106.00;27.90;;;;;;;-3.00;100.00;100789.97;5005250;28;20022;-91
2022/12/10 04:00:31;;;;;;;103.18;25.50;;;;;;;-3.17;100.00;100768.25;5011148;28;20030;-92
2022/12/10 04:02:57;;;;;;;98.10;26.27;;;;;;;-3.09;100.00;100776.09;5025472;28;20033;-92
2022/12/10 04:05:34;;;;;;;105.30;26.50;;;;;;;-3.07;100.00;100781.97;5012361;28;20030;-93
2022/12/10 04:08:21;;;;;;;93.07;25.05;;;;;;;-2.91;100.00;100805.53;5014858;28;20036;-93
2022/12/10 04:10:46;;;;;;;94.60;24.80;;;;;;;-2.91;100.00;100799.47;5012183;28;20037;-91
2022/12/10 04:26:52;;;;;;;104.03;26.98;;;;;;;-2.98;100.00;100788.84;5040823;28;20040;-92
2022/12/10 04:29:34;;;;;;;95.40;25.30;;;;;;;-3.05;100.00;100777.38;5047140;28;20038;-93
2022/12/10 04:32:00;;;;;;;105.00;25.67;;;;;;;-3.10;100.00;100770.03;5048195;28;20056;-93
2022/12/10 04:34:25;;;;;;;98.83;25.17;;;;;;;-3.01;100.00;100783.94;5035172;28;20295;-93
2022/12/10 04:36:54;;;;;;;98.93;26.00;;;;;;;-2.94;100.00;100795.41;5052894;28;20465;-93
2022/12/10 04:39:25;;;;;;;87.13;23.38;;;;;;;-2.96;100.00;100802.63;5042692;28;20922;-94
2022/12/10 04:42:01;;;;;;;104.00;25.27;;;;;;;-3.00;100.00;100796.06;5046252;28;20033;-92
2022/12/10 04:44:41;;;;;;;100.95;25.48;;;;;;;-3.03;100.00;100780.66;5033637;28;20029;-94
2022/12/10 04:47:19;;;;;;;108.80;26.20;;;;;;;-3.00;100.00;100787.38;5048339;28;20051;-92
2022/12/10 04:49:51;;;;;;;107.30;26.50;;;;;;;-2.90;100.00;100816.84;5032580;28;20036;-92
2022/12/10 04:52:29;;;;;;;98.70;25.35;;;;;;;-3.10;100.00;100779.69;5023849;28;20021;-92
2022/12/10 04:55:07;;;;;;;104.27;25.97;;;;;;;-3.06;100.00;100781.00;5038391;28;20509;-92
2022/12/10 04:57:42;;;;;;;103.00;24.85;;;;;;;-2.82;100.00;100814.19;5032413;28;20032;-93
2022/12/10 05:00:09;;;;;;;105.72;28.02;;;;;;;-2.98;100.00;100793.25;5038281;28;20016;-92
2022/12/10 05:02:44;;;;;;;116.10;27.23;;;;;;;-2.94;100.00;100805.06;5050285;28;20021;-93
2022/12/10 05:05:09;;;;;;;102.40;24.65;;;;;;;-2.83;100.00;100817.78;5051322;28;20032;-94
2022/12/10 05:07:34;;;;;;;103.23;25.43;;;;;;;-3.03;100.00;100793.78;5053583;28;20029;-92
2022/12/10 05:10:09;;;;;;;95.53;24.73;;;;;;;-2.86;100.00;100823.41;5065169;28;20480;-94
2022/12/10 05:12:34;;;;;;;97.70;23.17;;;;;;;-2.95;100.00;100800.78;5054106;28;20162;-93
2022/12/10 05:15:00;;;;;;;86.65;23.70;;;;;;;-2.99;100.00;100796.88;5034107;28;20120;-92
2022/12/10 05:17:38;;;;;;;98.87;24.23;;;;;;;-3.01;100.00;100793.63;5052753;22;20050;-93
2022/12/10 05:20:03;;;;;;;90.75;24.92;;;;;;;-2.93;100.00;100794.41;5020440;28;20056;-93
2022/12/10 05:25:52;;;;;;;106.15;27.55;;;;;;;-3.02;100.00;100784.13;5876632;22;20049;-93
2022/12/10 05:28:20;;;;;;;100.03;23.58;;;;;;;-2.93;100.00;100802.28;5029730;28;20473;-94
2022/12/10 05:31:43;;;;;;;93.45;23.77;;;;;;;-2.98;100.00;100788.00;5038766;28;20377;-96
2022/12/10 05:34:19;;;;;;;94.20;22.35;;;;;;;-2.80;100.00;100814.03;5022317;28;20033;-91
2022/12/10 05:36:45;;;;;;;92.70;23.70;;;;;;;-2.80;100.00;100822.69;5014635;28;20466;-91
2022/12/10 05:59:07;;;;;;;98.95;23.30;;;;;;;-2.78;100.00;100815.47;2804381;23;20053;-96
2022/12/10 06:05:15;;;;;;;87.40;21.70;;;;;;;-2.71;100.00;100831.34;5054725;28;20067;-96
2022/12/10 06:07:45;;;;;;;97.53;22.47;;;;;;;-2.70;100.00;100832.19;5041234;22;20065;-95
2022/12/10 06:10:21;;;;;;;95.17;23.83;;;;;;;-2.83;100.00;100809.91;5010253;28;20321;-96
2022/12/10 06:13:05;;;;;;;98.00;23.38;;;;;;;-2.80;100.00;100825.31;5015144;28;20030;-95
2022/12/10 06:18:12;;;;;;;96.85;23.55;;;;;;;-2.72;100.00;100824.47;5158560;23;20107;-95
2022/12/10 06:20:56;;;;;;;105.72;25.63;;;;;;;-2.65;100.00;100835.94;5056102;28;20033;-96
2022/12/10 06:23:30;;;;;;;101.30;24.20;;;;;;;-2.78;100.00;100812.88;5060768;28;20025;-96
2022/12/10 06:26:15;;;;;;;93.63;24.35;;;;;;;-2.74;100.00;100815.97;5038270;28;20116;-94
2022/12/10 06:28:45;;;;;;;86.63;21.50;;;;;;;-2.81;100.00;100807.16;5045647;28;20025;-93
2022/12/10 06:31:11;;;;;;;98.60;23.63;;;;;;;-2.67;100.00;100837.09;5048519;28;20013;-94
2022/12/10 06:33:45;;;;;;;91.33;22.80;;;;;;;-2.62;100.00;100835.59;5048886;28;20305;-93
2022/12/10 06:36:13;;;;;;;98.05;23.75;;;;;;;-2.73;100.00;100807.09;5048612;28;20032;-95
2022/12/10 06:38:38;;;;;;;100.22;25.10;;;;;;;-2.65;100.00;100819.41;5050288;28;20025;-95
2022/12/10 06:41:06;;;;;;;86.37;22.10;;;;;;;-2.66;100.00;100821.19;5049571;28;20040;-92
2022/12/10 06:43:31;;;;;;;86.70;23.33;;;;;;;-2.69;100.00;100815.47;5050983;28;20036;-93
2022/12/10 06:45:56;;;;;;;85.40;21.27;;;;;;;-2.63;100.00;100833.97;5053314;28;20448;-94
2022/12/10 06:48:22;;;;;;;80.63;20.77;;;;;;;-2.74;100.00;100823.84;5050221;28;20056;-91
2022/12/10 06:50:47;;;;;;;85.63;21.43;;;;;;;-2.70;100.00;100825.13;5032725;28;20287;-92
2022/12/10 06:53:13;;;;;;;114.63;22.67;;;;;;;-2.68;100.00;100836.28;5052218;28;20049;-92
2022/12/10 06:58:41;;;;;;;88.43;23.00;;;;;;;-2.57;100.00;100860.53;5204941;23;20069;-93
2022/12/10 07:01:14;;;;;;;81.20;20.93;;;;;;;-2.79;100.00;100824.34;5002846;28;20071;-91
2022/12/10 07:03:40;;;;;;;85.60;21.83;;;;;;;-2.59;100.00;100874.63;4994454;28;20288;-91
2022/12/10 07:23:02;;;;;;;92.65;23.05;;;;;;;-2.70;100.00;100866.28;5092029;23;20054;-90
2022/12/10 07:28:24;;;;;;;94.47;23.17;;;;;;;-2.68;100.00;100883.50;6109075;23;20267;-92
2022/12/10 07:30:49;;;;;;;85.13;21.58;;;;;;;-2.89;100.00;100855.19;5023179;28;20036;-93
2022/12/10 07:33:15;;;;;;;90.77;22.80;;;;;;;-2.92;100.00;100851.09;5030115;28;20033;-93
2022/12/10 08:16:46;;;;;;;102.70;23.00;;;;;;;-2.57;100.00;100900.69;6190368;22;20234;-89
2022/12/10 08:19:11;;;;;;;90.80;23.23;;;;;;;-2.53;100.00;100911.66;6190109;23;20013;-89
2022/12/10 08:21:36;;;;;;;102.80;23.63;;;;;;;-2.50;100.00;100919.19;6189749;23;20008;-89
2022/12/10 08:24:29;;;;;;;95.50;23.73;;;;;;;-2.39;100.00;100928.50;6189268;23;20063;-92
2022/12/10 08:29:29;;;;;;;101.53;26.75;;;;;;;-2.52;100.00;100901.00;6199620;22;20326;-90
2022/12/10 08:31:55;;;;;;;132.67;36.03;;;;;;;-2.28;100.00;100936.00;6187891;23;20009;-90
2022/12/10 08:34:20;;;;;;;123.70;33.23;;;;;;;-2.39;100.00;100923.25;6188359;23;20084;-90
2022/12/10 08:51:16;;;;;;;;;;;;;;;;;;;;;
2022/12/10 08:54:07;;;;;;;102.40;24.23;;;;;;;-2.35;100.00;100920.13;6089677;23;20083;-91
2022/12/10 09:09:37;;;;;;;98.35;23.42;;;;;;;-2.13;100.00;100933.50;6243933;23;20027;-90
2022/12/10 09:12:03;;;;;;;87.40;20.93;;;;;;;-2.06;100.00;100938.88;6243383;23;20340;-90
2022/12/10 09:14:28;;;;;;;93.32;20.58;;;;;;;-1.90;100.00;100953.75;6243490;23;20010;-90
2022/12/10 09:16:54;;;;;;;98.47;21.83;;;;;;;-1.81;100.00;100955.31;6214110;23;20035;-90
2022/12/10 09:19:25;;;;;;;96.38;21.55;;;;;;;-1.98;100.00;100925.72;6215403;23;20001;-90
2022/12/10 09:24:53;;;;;;;101.77;22.03;;;;;;;-2.03;100.00;100936.75;6213296;23;20355;-90
2022/12/10 09:27:35;;;;;;;91.90;21.98;;;;;;;-2.04;100.00;100940.34;6213716;23;20005;-91
2022/12/10 09:30:03;;;;;;;86.40;20.85;;;;;;;-1.91;100.00;100955.53;6204708;22;20035;-90
2022/12/10 09:32:28;;;;;;;91.35;21.42;;;;;;;-2.05;100.00;100936.09;6182810;23;20035;-90
2022/12/10 09:35:21;;;;;;;81.07;19.03;;;;;;;-1.84;100.00;100968.84;6183677;23;20009;-90
2022/12/10 09:37:47;;;;;;;87.57;20.63;;;;;;;-1.81;100.00;100978.16;6183489;23;20009;-91
2022/12/10 09:40:18;;;;;;;85.38;19.98;;;;;;;-2.00;100.00;100949.50;6155906;23;20009;-89
2022/12/10 09:43:04;;;;;;;84.83;20.00;;;;;;;-1.92;100.00;100961.81;6157002;23;20000;-90
2022/12/10 09:45:41;;;;;;;89.97;21.13;;;;;;;-1.79;100.00;100984.06;6156135;23;20337;-90
2022/12/10 09:48:09;;;;;;;92.40;20.35;;;;;;;-1.78;100.00;100993.59;6183437;23;20032;-90
2022/12/10 09:51:04;;;;;;;82.07;19.08;;;;;;;-1.70;100.00;100990.91;6184034;23;20009;-90
2022/12/10 09:53:30;;;;;;;90.65;20.38;;;;;;;-1.84;100.00;100959.13;6182525;22;20005;-89
2022/12/10 09:56:05;;;;;;;91.68;20.92;;;;;;;-1.83;100.00;100955.50;6183852;23;20033;-90
2022/12/10 09:58:49;;;;;;;96.90;21.97;;;;;;;-1.69;100.00;100982.88;6183179;23;20011;-90
2022/12/10 10:04:06;;;;;;;83.22;19.65;;;;;;;-1.65;100.00;100990.41;6183247;22;20021;-91
2022/12/10 10:06:45;;;;;;;84.75;20.30;;;;;;;-1.70;100.00;100978.59;6150276;23;20016;-89
2022/12/10 10:09:17;;;;;;;83.88;19.55;;;;;;;-1.74;100.00;100966.00;6153428;23;20009;-90
2022/12/10 10:11:44;;;;;;;93.53;21.17;;;;;;;-1.60;100.00;101002.03;6154241;23;20442;-90
2022/12/10 10:16:58;;;;;;;106.23;23.67;;;;;;;-1.77;100.00;100968.97;6183448;22;20811;-90
2022/12/10 10:19:35;;;;;;;88.07;20.02;;;;;;;-1.69;100.00;100988.13;6183387;23;20828;-90
2022/12/10 10:22:10;;;;;;;92.63;20.52;;;;;;;-1.51;100.00;101008.06;6156320;23;20676;-90
2022/12/10 10:24:56;;;;;;;88.88;19.88;;;;;;;-1.44;100.00;101011.63;6182533;23;20009;-90
2022/12/10 10:27:40;;;;;;;100.57;22.67;;;;;;;-1.39;100.00;101005.88;6156039;23;20020;-91
2022/12/10 10:30:20;;;;;;;99.38;22.80;;;;;;;-1.41;100.00;101011.28;6154920;23;20526;-90
2022/12/10 10:34:00;;;;;;;;;;;;;;;;;;;;;
2022/12/10 10:39:35;;;;;;;92.78;20.75;;;;;;;-1.23;100.00;101003.13;6181591;22;20091;-89
2022/12/10 10:46:07;;;;;;;77.93;18.98;;;;;;;-1.34;100.00;100971.97;6181857;22;20044;-89
2022/12/10 10:48:32;;;;;;;84.00;19.58;;;;;;;-1.32;100.00;100971.81;5948950;24;20012;-89
2022/12/10 10:54:09;;;;;;;83.50;19.33;;;;;;;-1.20;100.00;100972.22;5947954;24;20057;-90
2022/12/10 10:56:46;;;;;;;87.40;20.13;;;;;;;-1.08;100.00;100982.13;5986567;23;20081;-89
2022/12/10 10:59:39;;;;;;;83.60;19.30;;;;;;;-0.95;100.00;100997.31;6033546;23;20086;-89
2022/12/10 11:02:41;;;;;;;85.43;19.47;;;;;;;-0.86;100.00;100994.63;6033008;23;20255;-89
2022/12/10 11:05:30;;;;;;;84.15;19.83;;;;;;;-0.81;100.00;100994.88;6138422;23;20009;-89
2022/12/10 11:08:24;;;;;;;86.55;20.98;;;;;;;-0.83;100.00;100995.06;6157678;23;20013;-89
2022/12/10 11:20:37;;;;;;;75.73;18.80;;;;;;;-0.70;100.00;100983.94;6151143;23;20048;-89
2022/12/10 11:23:18;;;;;;;79.00;19.67;;;;;;;-0.70;100.00;100976.06;6153765;23;20249;-91
2022/12/10 11:29:00;;;;;;;79.25;19.20;;;;;;;-0.62;100.00;100975.16;6242849;22;20074;-90
2022/12/10 11:32:03;;;;;;;83.70;21.35;;;;;;;-0.59;100.00;100979.22;6176268;23;20048;-90
2022/12/10 11:35:24;;;;;;;77.75;19.20;;;;;;;-0.50;100.00;100981.59;6182362;23;20016;-90
2022/12/10 11:38:05;;;;;;;88.35;22.33;;;;;;;-0.43;100.00;100983.53;6155429;23;20497;-90
2022/12/10 11:43:31;;;;;;;83.87;21.10;;;;;;;-0.36;100.00;100987.06;6180557;22;20275;-90
2022/12/10 11:46:18;;;;;;;84.30;20.80;;;;;;;-0.38;100.00;100983.81;6181893;23;20009;-90
2022/12/10 11:49:09;;;;;;;81.00;21.63;;;;;;;-0.41;100.00;100984.97;6182184;23;20084;-90
2022/12/10 11:52:00;;;;;;;78.07;20.75;;;;;;;-0.46;100.00;100989.97;6179426;22;20021;-90
2022/12/10 11:54:34;;;;;;;72.30;18.40;;;;;;;-0.45;100.00;100988.94;6155758;22;20013;-89
2022/12/10 11:57:24;;;;;;;76.33;19.07;;;;;;;-0.55;100.00;100989.25;6181182;23;20009;-90
2022/12/10 12:00:24;;;;;;;77.53;22.43;;;;;;;-0.81;100.00;100987.84;6181661;23;20240;-89
2022/12/10 12:03:19;;;;;;;71.97;18.77;;;;;;;-0.90;100.00;100991.50;6181952;23;20092;-90
2022/12/10 12:12:34;;;;;;;74.13;19.25;;;;;;;-0.97;100.00;100986.16;6180732;23;20379;-90
2022/12/10 12:15:37;;;;;;;76.03;18.80;;;;;;;-1.02;100.00;100988.50;6154777;23;20025;-90
2022/12/10 12:18:54;;;;;;;69.43;18.03;;;;;;;-1.05;100.00;100994.13;6182350;23;20012;-90
2022/12/10 12:21:35;;;;;;;77.85;20.60;;;;;;;-1.13;100.00;100975.75;6180848;23;20332;-90
2022/12/10 12:24:49;;;;;;;;;;;;;;;;;;;;;
2022/12/10 12:28:21;;;;;;;;;;;;;;;;;;;;;
2022/12/10 12:43:34;;;;;;;86.18;21.02;;;;;;;-0.85;100.00;100988.38;6182627;23;20020;-90
2022/12/10 12:46:46;;;;;;;85.47;21.80;;;;;;;-0.77;100.00;100989.13;6152070;23;20009;-90
2022/12/10 13:59:30;;;;;;;63.30;16.87;;;;;;;-0.71;100.00;101005.16;6183500;23;20271;-90
2022/12/10 14:26:41;;;;;;;65.28;17.08;;;;;;;-1.03;100.00;101013.19;6196352;22;20067;-91
2022/12/10 14:29:06;;;;;;;66.75;16.75;;;;;;;-1.04;100.00;101019.44;6156395;23;20013;-90
2022/12/10 14:34:12;;;;;;;59.92;16.23;;;;;;;-1.25;100.00;100999.00;6184783;22;20396;-91
2022/12/10 14:40:23;;;;;;;64.05;17.48;;;;;;;-1.08;100.00;101026.03;6185171;23;20020;-91
2022/12/10 14:43:32;;;;;;;58.88;16.27;;;;;;;-1.07;100.00;101028.47;6185880;23;20748;-91
2022/12/10 15:18:06;;;;;;;59.05;14.20;;;;;;;-1.21;100.00;101034.50;6182155;23;20105;-91
2022/12/10 15:21:18;;;;;;;56.38;14.02;;;;;;;-1.20;100.00;101038.75;6154969;23;20013;-90
2022/12/10 15:27:30;;;;;;;55.58;14.38;;;;;;;-1.18;100.00;101039.41;6182705;22;20291;-91
2022/12/10 15:49:24;;;;;;;62.47;16.30;;;;;;;-1.44;100.00;101021.34;6208978;23;20023;-91
2022/12/10 15:52:29;;;;;;;75.57;19.40;;;;;;;-1.48;100.00;101025.28;6243228;23;20004;-93
2022/12/10 15:58:34;;;;;;;72.50;17.48;;;;;;;-1.49;100.00;101026.28;6061781;23;20070;-88
2022/12/10 16:01:54;;;;;;;74.85;17.88;;;;;;;-1.31;100.00;101047.06;6061184;23;20070;-87
2022/12/10 16:05:01;;;;;;;73.80;17.42;;;;;;;-1.33;100.00;101054.31;6111805;23;20016;-91
2022/12/10 16:07:49;;;;;;;66.83;17.63;;;;;;;-1.36;100.00;101047.56;6212930;23;20007;-90
2022/12/10 16:23:27;;;;;;;70.13;18.00;;;;;;;-1.37;100.00;101044.13;6182992;23;20024;-90
2022/12/10 16:25:53;;;;;;;78.93;18.35;;;;;;;-1.42;100.00;101032.50;6153379;22;20024;-89
2022/12/10 16:28:23;;;;;;;76.73;20.33;;;;;;;-1.39;100.00;101034.78;6182861;23;20364;-89
2022/12/10 16:30:57;;;;;;;83.15;18.92;;;;;;;-1.38;100.00;101037.22;6183964;23;20084;-91
2022/12/10 16:33:24;;;;;;;78.38;18.77;;;;;;;-1.30;100.00;101061.84;6190685;23;20001;-90
2022/12/10 16:35:51;;;;;;;67.75;16.90;;;;;;;-1.35;100.00;101051.81;6185799;23;20029;-91
2022/12/10 16:38:17;;;;;;;70.00;17.37;;;;;;;-1.38;100.00;101052.19;6182686;23;20024;-91
2022/12/10 16:40:44;;;;;;;71.70;17.27;;;;;;;-1.39;100.00;101045.31;6181977;23;20241;-91
2022/12/10 16:43:50;;;;;;;72.57;17.88;;;;;;;-1.34;100.00;101052.66;6184984;22;20013;-91
2022/12/10 16:47:02;;;;;;;68.28;16.58;;;;;;;-1.33;100.00;101051.69;6182849;23;20019;-91
2022/12/10 16:49:28;;;;;;;70.82;16.75;;;;;;;-1.41;100.00;101044.66;6156883;23;20009;-91
2022/12/10 16:51:58;;;;;;;70.27;15.53;;;;;;;-1.44;100.00;101045.78;6182149;23;20013;-91
2022/12/10 16:54:24;;;;;;;84.03;20.45;;;;;;;-1.35;100.00;101053.66;6182274;23;20550;-90
2022/12/10 16:57:39;;;;;;;69.73;18.13;;;;;;;-1.48;100.00;101027.91;6183881;23;20021;-93
2022/12/10 17:00:35;;;;;;;79.53;18.50;;;;;;;-1.47;100.00;101042.69;6057062;23;20011;-91
2022/12/10 17:03:21;;;;;;;74.00;17.98;;;;;;;-1.50;100.00;101038.63;6125834;23;20033;-91
2022/12/10 17:06:13;;;;;;;85.00;18.98;;;;;;;-1.48;100.00;101044.53;6157268;23;20016;-90
2022/12/10 17:08:41;;;;;;;79.97;17.65;;;;;;;-1.32;100.00;101076.97;6182378;23;20016;-88
2022/12/10 17:14:26;;;;;;;80.30;19.10;;;;;;;-1.34;100.00;101063.19;6181303;23;20108;-91
2022/12/10 17:16:55;;;;;;;81.70;18.77;;;;;;;-1.35;100.00;101069.44;6183288;23;20461;-90
2022/12/10 17:19:21;;;;;;;82.37;19.33;;;;;;;-1.37;100.00;101073.03;6183312;23;20253;-90
2022/12/10 17:21:46;;;;;;;69.00;18.08;;;;;;;-1.37;100.00;101067.78;6183262;23;20333;-91
2022/12/10 17:24:12;;;;;;;75.43;18.93;;;;;;;-1.40;100.00;101070.75;6182678;23;20015;-90
2022/12/10 17:26:42;;;;;;;79.55;18.83;;;;;;;-1.36;100.00;101081.75;6184529;23;20012;-91
2022/12/10 17:29:18;;;;;;;71.60;17.47;;;;;;;-1.37;100.00;101091.44;6184330;23;20001;-92
2022/12/10 17:31:45;;;;;;;77.75;17.85;;;;;;;-1.38;100.00;101089.00;6182391;23;20012;-89
2022/12/10 17:34:12;;;;;;;72.80;19.27;;;;;;;-1.38;100.00;101075.88;6155126;23;20005;-90
2022/12/10 17:36:38;;;;;;;72.43;18.75;;;;;;;-1.33;100.00;101080.59;6183198;23;20011;-90
2022/12/10 17:39:03;;;;;;;74.78;19.83;;;;;;;-1.39;100.00;101071.59;6182498;23;20004;-90
2022/12/10 17:41:29;;;;;;;73.27;18.47;;;;;;;-1.31;100.00;101089.13;6182943;23;20009;-90
2022/12/10 17:43:54;;;;;;;76.13;17.67;;;;;;;-1.32;100.00;101084.88;6154511;23;20036;-89
2022/12/10 17:46:23;;;;;;;79.43;18.93;;;;;;;-1.29;100.00;101081.91;6181384;23;20013;-89
2022/12/10 17:48:49;;;;;;;64.75;17.63;;;;;;;-1.32;100.00;101076.97;6181373;23;20071;-89
2022/12/10 17:51:14;;;;;;;69.45;19.42;;;;;;;-1.32;100.00;101071.72;6155753;23;20464;-89
2022/12/10 17:53:40;;;;;;;81.23;19.57;;;;;;;-1.32;100.00;101072.53;6181650;23;20430;-89
2022/12/10 17:56:19;;;;;;;75.97;19.83;;;;;;;-1.26;100.00;101077.09;6182542;23;20016;-90
2022/12/10 17:58:45;;;;;;;74.20;18.42;;;;;;;-1.29;100.00;101077.44;6182319;23;20425;-90
2022/12/10 18:01:11;;;;;;;75.72;18.65;;;;;;;-1.40;100.00;101059.44;6181185;23;20441;-89
2022/12/10 18:03:37;;;;;;;73.63;19.27;;;;;;;-1.28;100.00;101080.91;6181483;23;20051;-89
2022/12/10 18:06:04;;;;;;;73.82;18.10;;;;;;;-1.31;100.00;101076.78;6182918;23;20025;-88
2022/12/10 18:08:29;;;;;;;62.60;17.15;;;;;;;-1.31;100.00;101073.34;6182213;23;20016;-90
2022/12/10 18:10:56;;;;;;;75.80;18.90;;;;;;;-1.30;100.00;101067.09;6179576;23;20001;-90
2022/12/10 18:13:22;;;;;;;77.20;19.80;;;;;;;-1.31;100.00;101079.41;6174322;23;20044;-94
2022/12/10 18:15:48;;;;;;;73.43;18.80;;;;;;;-1.36;100.00;101071.22;6182710;23;20061;-89
2022/12/10 18:18:13;;;;;;;79.93;18.02;;;;;;;-1.25;100.00;101078.75;6155419;23;20582;-89
2022/12/10 18:20:40;;;;;;;78.90;18.53;;;;;;;-1.20;100.00;101086.09;6182786;23;20004;-89
2022/12/10 18:23:07;;;;;;;80.43;20.77;;;;;;;-1.20;100.00;101078.22;6185347;23;20004;-90
2022/12/10 18:25:33;;;;;;;70.40;17.63;;;;;;;-1.19;100.00;101079.03;6181533;23;20421;-89
2022/12/10 18:28:03;;;;;;;78.63;18.27;;;;;;;-1.15;100.00;101086.41;6154617;23;20001;-89
2022/12/10 18:30:30;;;;;;;80.18;19.42;;;;;;;-1.14;100.00;101095.09;6180495;23;20001;-89
2022/12/10 18:32:57;;;;;;;83.35;20.98;;;;;;;-1.15;100.00;101089.03;6181711;23;20076;-90
2022/12/10 18:35:22;;;;;;;81.32;19.35;;;;;;;-1.19;100.00;101074.59;6155641;23;20009;-90
2022/12/10 18:37:47;;;;;;;85.70;21.80;;;;;;;-1.15;100.00;101080.31;6182622;23;20009;-88
2022/12/10 18:40:20;;;;;;;87.97;21.70;;;;;;;-1.13;100.00;101084.44;6154699;23;20013;-88
2022/12/10 18:42:46;;;;;;;81.05;19.50;;;;;;;-1.15;100.00;101083.78;6180791;23;20092;-89
2022/12/10 18:45:11;;;;;;;88.63;21.30;;;;;;;-1.13;100.00;101087.06;6182295;23;20031;-89
2022/12/10 18:50:27;;;;;;;81.30;19.48;;;;;;;-1.15;100.00;101083.78;6179361;23;20020;-90
2022/12/10 18:52:53;;;;;;;88.25;20.20;;;;;;;-1.17;100.00;101080.50;6155408;23;20005;-90
2022/12/10 18:55:29;;;;;;;88.95;20.08;;;;;;;-1.17;100.00;101085.75;6181396;23;20060;-89
2022/12/10 18:57:54;;;;;;;85.33;19.87;;;;;;;-1.23;100.00;101074.13;6180945;23;20008;-90
2022/12/10 19:00:41;;;;;;;84.33;20.30;;;;;;;-1.21;100.00;101068.69;6181448;23;20244;-90
2022/12/10 19:05:52;;;;;;;83.38;20.48;;;;;;;-1.18;100.00;101084.13;6181811;22;20412;-90
2022/12/10 19:09:17;;;;;;;81.57;20.03;;;;;;;-1.03;100.00;101101.78;6182012;23;20088;-89
2022/12/10 19:14:53;;;;;;;81.23;19.87;;;;;;;-1.14;100.00;101077.53;6182264;23;20017;-91
2022/12/10 19:20:24;;;;;;;86.90;20.08;;;;;;;-1.10;100.00;101089.34;6158477;23;20041;-93
2022/12/10 19:22:52;;;;;;;91.57;21.20;;;;;;;-1.02;100.00;101093.72;6182627;23;20009;-90
2022/12/10 19:25:37;;;;;;;91.80;22.02;;;;;;;-0.98;100.00;101099.47;6182180;23;20015;-94
2022/12/10 19:28:05;;;;;;;80.13;19.55;;;;;;;-1.09;100.00;101071.75;6182240;23;20052;-93
2022/12/10 19:30:42;;;;;;;74.32;20.27;;;;;;;-1.07;100.00;101075.00;6182826;23;19996;-94
2022/12/10 19:33:07;;;;;;;74.23;18.83;;;;;;;-1.00;100.00;101091.72;6183068;23;20012;-94
2022/12/10 19:35:45;;;;;;;68.37;17.53;;;;;;;-1.14;100.00;101063.53;6182400;23;20630;-93
2022/12/10 19:38:19;;;;;;;75.70;19.67;;;;;;;-1.12;100.00;101061.56;6159840;23;20088;-94
2022/12/10 19:40:54;;;;;;;78.15;20.08;;;;;;;-1.11;100.00;101063.19;6183871;23;20002;-93
2022/12/10 19:43:57;;;;;;;90.70;21.17;;;;;;;-0.94;100.00;101090.22;6185243;23;20004;-91
2022/12/10 19:46:28;;;;;;;77.30;19.87;;;;;;;-1.11;100.00;101055.31;6189794;23;20259;-92
2022/12/10 19:48:53;;;;;;;80.70;20.75;;;;;;;-1.03;100.00;101070.22;6186280;23;20042;-93
2022/12/10 19:51:21;;;;;;;95.73;23.67;;;;;;;-0.99;100.00;101076.78;6183622;23;20358;-94
2022/12/10 19:53:55;;;;;;;69.53;17.33;;;;;;;-1.05;100.00;101078.28;6182655;23;20240;-93
2022/12/10 19:56:29;;;;;;;68.22;17.00;;;;;;;-1.03;100.00;101084.19;6182202;23;20410;-95
2022/12/10 19:58:57;;;;;;;68.03;18.67;;;;;;;-1.08;100.00;101076.81;6182458;23;20001;-93
2022/12/10 20:09:26;;;;;;;88.23;20.60;;;;;;;-1.14;100.00;101055.66;6191104;22;20016;-93
2022/12/10 20:11:55;;;;;;;88.90;18.75;;;;;;;-1.10;100.00;101060.41;6197896;23;20040;-93
2022/12/10 20:14:32;;;;;;;84.57;21.70;;;;;;;-1.02;100.00;101070.06;6199484;23;20005;-93
2022/12/10 20:17:03;;;;;;;92.88;23.33;;;;;;;-1.02;100.00;101071.84;6161912;23;20068;-93
2022/12/10 20:19:29;;;;;;;91.03;21.80;;;;;;;-0.98;100.00;101081.03;6156228;23;20014;-94